sensor_id;sensor_type;location;lat;lon;timestamp;pressure;altitude;pressure_sealevel;temperature;humidity
11345;BME280;5727;42.600;23.028;2023-06-04T00:00:14;93813.47;;;16.70;100.00
11345;BME280;5727;42.600;23.028;2023-06-04T00:02:40;93809.38;;;16.76;100.00
11345;BME280;5727;42.600;23.028;2023-06-04T00:05:08;93816.50;;;16.72;100.00
11345;BME280;5727;42.600;23.028;2023-06-04T00:07:34;93812.34;;;16.71;100.00
11345;BME280;5727;42.600;23.028;2023-06-04T00:10:04;93800.59;;;16.68;100.00
11345;BME280;5727;42.600;23.028;2023-06-04T00:12:30;93801.34;;;16.65;100.00
11345;BME280;5727;42.600;23.028;2023-06-04T00:14:57;93803.94;;;16.62;100.00
11345;BME280;5727;42.600;23.028;2023-06-04T00:17:24;93806.53;;;16.58;100.00
11345;BME280;5727;42.600;23.028;2023-06-04T00:19:50;93798.91;;;16.53;100.00
11345;BME280;5727;42.600;23.028;2023-06-04T00:22:17;93796.09;;;16.42;100.00
11345;BME280;5727;42.600;23.028;2023-06-04T00:24:44;93802.50;;;16.41;100.00
11345;BME280;5727;42.600;23.028;2023-06-04T00:27:12;93797.59;;;16.40;100.00
11345;BME280;5727;42.600;23.028;2023-06-04T00:29:39;93803.09;;;16.28;100.00
11345;BME280;5727;42.600;23.028;2023-06-04T00:32:06;93795.44;;;16.19;100.00
11345;BME280;5727;42.600;23.028;2023-06-04T00:34:33;93793.91;;;16.18;100.00
11345;BME280;5727;42.600;23.028;2023-06-04T00:37:00;93795.34;;;16.12;100.00
11345;BME280;5727;42.600;23.028;2023-06-04T00:39:27;93791.59;;;16.13;100.00
11345;BME280;5727;42.600;23.028;2023-06-04T00:41:54;93792.31;;;16.14;100.00
11345;BME280;5727;42.600;23.028;2023-06-04T00:44:22;93792.25;;;16.07;100.00
11345;BME280;5727;42.600;23.028;2023-06-04T00:46:50;93788.31;;;15.97;100.00
11345;BME280;5727;42.600;23.028;2023-06-04T00:49:19;93792.09;;;15.96;100.00
11345;BME280;5727;42.600;23.028;2023-06-04T00:51:46;93787.16;;;15.95;100.00
11345;BME280;5727;42.600;23.028;2023-06-04T00:54:12;93788.19;;;15.87;100.00
11345;BME280;5727;42.600;23.028;2023-06-04T00:56:41;93783.66;;;15.87;100.00
11345;BME280;5727;42.600;23.028;2023-06-04T00:59:08;93786.69;;;15.89;100.00
11345;BME280;5727;42.600;23.028;2023-06-04T01:01:44;93782.19;;;15.90;100.00
11345;BME280;5727;42.600;23.028;2023-06-04T01:04:16;93784.41;;;15.88;100.00
11345;BME280;5727;42.600;23.028;2023-06-04T01:06:49;93791.13;;;15.82;100.00
11345;BME280;5727;42.600;23.028;2023-06-04T01:09:18;93783.88;;;15.75;100.00
11345;BME280;5727;42.600;23.028;2023-06-04T01:11:45;93781.22;;;15.75;100.00
11345;BME280;5727;42.600;23.028;2023-06-04T01:14:11;93787.22;;;15.72;100.00
11345;BME280;5727;42.600;23.028;2023-06-04T01:16:47;93779.59;;;15.67;100.00
11345;BME280;5727;42.600;23.028;2023-06-04T01:19:51;93782.97;;;15.68;100.00
11345;BME280;5727;42.600;23.028;2023-06-04T01:22:32;93790.56;;;15.69;100.00
11345;BME280;5727;42.600;23.028;2023-06-04T01:25:03;93791.56;;;15.61;100.00
11345;BME280;5727;42.600;23.028;2023-06-04T01:27:31;93788.56;;;15.63;100.00
11345;BME280;5727;42.600;23.028;2023-06-04T01:30:00;93791.56;;;15.61;100.00
11345;BME280;5727;42.600;23.028;2023-06-04T01:32:30;93793.09;;;15.62;100.00
11345;BME280;5727;42.600;23.028;2023-06-04T01:34:57;93789.28;;;15.60;100.00
11345;BME280;5727;42.600;23.028;2023-06-04T01:37:25;93794.97;;;15.62;100.00
11345;BME280;5727;42.600;23.028;2023-06-04T01:39:51;93791.56;;;15.61;100.00
11345;BME280;5727;42.600;23.028;2023-06-04T01:42:18;93801.38;;;15.61;100.00
11345;BME280;5727;42.600;23.028;2023-06-04T01:44:45;93797.53;;;15.58;100.00
11345;BME280;5727;42.600;23.028;2023-06-04T01:47:11;93805.06;;;15.56;100.00
11345;BME280;5727;42.600;23.028;2023-06-04T01:49:40;93804.31;;;15.55;100.00
11345;BME280;5727;42.600;23.028;2023-06-04T01:52:07;93802.41;;;15.56;100.00
11345;BME280;5727;42.600;23.028;2023-06-04T01:54:34;93803.59;;;15.58;100.00
11345;BME280;5727;42.600;23.028;2023-06-04T01:57:01;93804.31;;;15.55;100.00
11345;BME280;5727;42.600;23.028;2023-06-04T01:59:28;93805.06;;;15.56;100.00
11345;BME280;5727;42.600;23.028;2023-06-04T02:01:57;93804.72;;;15.57;100.00
11345;BME280;5727;42.600;23.028;2023-06-04T02:04:24;93801.22;;;15.50;100.00
11345;BME280;5727;42.600;23.028;2023-06-04T02:06:52;93802.78;;;15.54;100.00
11345;BME280;5727;42.600;23.028;2023-06-04T02:09:21;93805.81;;;15.56;100.00
11345;BME280;5727;42.600;23.028;2023-06-04T02:11:47;93807.31;;;15.54;100.00
11345;BME280;5727;42.600;23.028;2023-06-04T02:14:14;93809.78;;;15.43;100.00
11345;BME280;5727;42.600;23.028;2023-06-04T02:16:41;93812.47;;;15.47;100.00
11345;BME280;5727;42.600;23.028;2023-06-04T02:19:07;93816.19;;;15.42;100.00
11345;BME280;5727;42.600;23.028;2023-06-04T02:21:34;93821.88;;;15.44;100.00
11345;BME280;5727;42.600;23.028;2023-06-04T02:24:03;93816.97;;;15.46;100.00
11345;BME280;5727;42.600;23.028;2023-06-04T02:26:30;93817.75;;;15.47;100.00
11345;BME280;5727;42.600;23.028;2023-06-04T02:28:57;93827.66;;;15.53;100.00
11345;BME280;5727;42.600;23.028;2023-06-04T02:31:24;93825.44;;;15.55;100.00
11345;BME280;5727;42.600;23.028;2023-06-04T02:33:51;93833.78;;;15.57;100.00
11345;BME280;5727;42.600;23.028;2023-06-04T02:36:17;93829.59;;;15.56;100.00
11345;BME280;5727;42.600;23.028;2023-06-04T02:38:44;93845.16;;;15.62;100.00
11345;BME280;5727;42.600;23.028;2023-06-04T02:41:12;93837.66;;;15.64;100.00
11345;BME280;5727;42.600;23.028;2023-06-04T02:43:39;93839.22;;;15.68;100.00
11345;BME280;5727;42.600;23.028;2023-06-04T02:46:06;93839.94;;;15.65;100.00
11345;BME280;5727;42.600;23.028;2023-06-04T02:48:32;93849.78;;;15.68;100.00
11345;BME280;5727;42.600;23.028;2023-06-04T02:50:59;93846.03;;;15.69;100.00
11345;BME280;5727;42.600;23.028;2023-06-04T02:53:26;93842.69;;;15.72;100.00
11345;BME280;5727;42.600;23.028;2023-06-04T02:55:52;93850.19;;;15.70;100.00
11345;BME280;5727;42.600;23.028;2023-06-04T02:58:21;93845.63;;;15.67;100.00
11345;BME280;5727;42.600;23.028;2023-06-04T03:00:52;93845.97;;;15.66;100.00
11345;BME280;5727;42.600;23.028;2023-06-04T03:03:19;93848.97;;;15.64;100.00
11345;BME280;5727;42.600;23.028;2023-06-04T03:05:46;93854.94;;;15.61;100.00
11345;BME280;5727;42.600;23.028;2023-06-04T03:08:13;93857.88;;;15.56;100.00
11345;BME280;5727;42.600;23.028;2023-06-04T03:10:40;93857.25;;;15.63;100.00
11345;BME280;5727;42.600;23.028;2023-06-04T03:13:06;93850.50;;;15.65;100.00
11345;BME280;5727;42.600;23.028;2023-06-04T03:15:34;93852.13;;;15.73;100.00
11345;BME280;5727;42.600;23.028;2023-06-04T03:18:04;93853.34;;;15.79;100.00
11345;BME280;5727;42.600;23.028;2023-06-04T03:20:31;93860.22;;;15.84;100.00
11345;BME280;5727;42.600;23.028;2023-06-04T03:23:00;93856.81;;;15.83;100.00
11345;BME280;5727;42.600;23.028;2023-06-04T03:25:27;93853.94;;;15.92;100.00
11345;BME280;5727;42.600;23.028;2023-06-04T03:27:54;93854.81;;;15.99;100.00
11345;BME280;5727;42.600;23.028;2023-06-04T03:30:20;93857.91;;;16.05;100.00
11345;BME280;5727;42.600;23.028;2023-06-04T03:32:48;93862.13;;;16.09;100.00
11345;BME280;5727;42.600;23.028;2023-06-04T03:35:15;93864.78;;;16.09;100.00
11345;BME280;5727;42.600;23.028;2023-06-04T03:37:42;93856.16;;;16.16;100.00
11345;BME280;5727;42.600;23.028;2023-06-04T03:40:09;93861.13;;;16.17;100.00
11345;BME280;5727;42.600;23.028;2023-06-04T03:42:36;93870.25;;;16.23;100.00
11345;BME280;5727;42.600;23.028;2023-06-04T03:45:03;93871.06;;;16.27;100.00
11345;BME280;5727;42.600;23.028;2023-06-04T03:47:30;93874.44;;;16.24;100.00
11345;BME280;5727;42.600;23.028;2023-06-04T03:49:58;93867.34;;;16.32;100.00
11345;BME280;5727;42.600;23.028;2023-06-04T03:52:25;93873.41;;;16.32;100.00
11345;BME280;5727;42.600;23.028;2023-06-04T03:54:52;93877.56;;;16.33;100.00
11345;BME280;5727;42.600;23.028;2023-06-04T03:57:19;93878.78;;;16.39;100.00
11345;BME280;5727;42.600;23.028;2023-06-04T03:59:45;93883.06;;;16.47;100.00
11345;BME280;5727;42.600;23.028;2023-06-04T04:02:12;93882.41;;;16.54;100.00
11345;BME280;5727;42.600;23.028;2023-06-04T04:04:39;93885.16;;;16.61;100.00
11345;BME280;5727;42.600;23.028;2023-06-04T04:07:07;93889.78;;;16.68;100.00
11345;BME280;5727;42.600;23.028;2023-06-04T04:09:34;93889.13;;;16.74;100.00
11345;BME280;5727;42.600;23.028;2023-06-04T04:12:01;93890.63;;;16.75;100.00
11345;BME280;5727;42.600;23.028;2023-06-04T04:14:28;93897.53;;;16.83;100.00
11345;BME280;5727;42.600;23.028;2023-06-04T04:16:54;93910.03;;;16.83;100.00
11345;BME280;5727;42.600;23.028;2023-06-04T04:19:21;93907.38;;;16.83;100.00
11345;BME280;5727;42.600;23.028;2023-06-04T04:21:48;93910.41;;;16.85;100.00
11345;BME280;5727;42.600;23.028;2023-06-04T04:24:23;93914.59;;;16.86;100.00
11345;BME280;5727;42.600;23.028;2023-06-04T04:26:50;93914.22;;;16.87;100.00
11345;BME280;5727;42.600;23.028;2023-06-04T04:29:19;93912.75;;;16.90;100.00
11345;BME280;5727;42.600;23.028;2023-06-04T04:31:48;93915.00;;;16.88;100.00
11345;BME280;5727;42.600;23.028;2023-06-04T04:34:15;93911.16;;;16.56;100.00
11345;BME280;5727;42.600;23.028;2023-06-04T04:36:42;93911.25;;;16.36;100.00
11345;BME280;5727;42.600;23.028;2023-06-04T04:39:09;93917.53;;;16.28;100.00
11345;BME280;5727;42.600;23.028;2023-06-04T04:41:38;93912.72;;;16.34;100.00
11345;BME280;5727;42.600;23.028;2023-06-04T04:44:05;93914.63;;;16.37;100.00
11345;BME280;5727;42.600;23.028;2023-06-04T04:46:31;93913.50;;;16.34;100.00
11345;BME280;5727;42.600;23.028;2023-06-04T04:48:58;93919.06;;;16.29;100.00
11345;BME280;5727;42.600;23.028;2023-06-04T04:51:25;93911.28;;;16.40;100.00
11345;BME280;5727;42.600;23.028;2023-06-04T04:53:52;93912.28;;;16.55;100.00
11345;BME280;5727;42.600;23.028;2023-06-04T04:56:19;93912.41;;;16.62;100.00
11345;BME280;5727;42.600;23.028;2023-06-04T04:58:49;93912.94;;;16.74;100.00
11345;BME280;5727;42.600;23.028;2023-06-04T05:01:15;93921.41;;;16.87;100.00
11345;BME280;5727;42.600;23.028;2023-06-04T05:03:42;93918.84;;;16.94;100.00
11345;BME280;5727;42.600;23.028;2023-06-04T05:06:09;93918.53;;;16.99;100.00
11345;BME280;5727;42.600;23.028;2023-06-04T05:08:36;93916.31;;;17.04;100.00
11345;BME280;5727;42.600;23.028;2023-06-04T05:11:03;93924.63;;;17.03;100.00
11345;BME280;5727;42.600;23.028;2023-06-04T05:13:29;93916.31;;;17.04;100.00
11345;BME280;5727;42.600;23.028;2023-06-04T05:15:58;93924.41;;;17.15;100.00
11345;BME280;5727;42.600;23.028;2023-06-04T05:18:42;93927.47;;;17.17;100.00
11345;BME280;5727;42.600;23.028;2023-06-04T05:21:10;93923.81;;;17.28;100.00
11345;BME280;5727;42.600;23.028;2023-06-04T05:23:38;93919.78;;;17.42;100.00
11345;BME280;5727;42.600;23.028;2023-06-04T05:26:05;93929.38;;;17.50;100.00
11345;BME280;5727;42.600;23.028;2023-06-04T05:28:31;93926.78;;;17.57;100.00
11345;BME280;5727;42.600;23.028;2023-06-04T05:31:00;93927.94;;;17.59;100.00
11345;BME280;5727;42.600;23.028;2023-06-04T05:33:28;93927.22;;;17.62;100.00
11345;BME280;5727;42.600;23.028;2023-06-04T05:35:56;93927.25;;;17.66;100.00
11345;BME280;5727;42.600;23.028;2023-06-04T05:38:23;93934.78;;;17.64;100.00
11345;BME280;5727;42.600;23.028;2023-06-04T05:40:51;93943.91;;;17.66;100.00
11345;BME280;5727;42.600;23.028;2023-06-04T05:43:18;93944.69;;;17.67;100.00
11345;BME280;5727;42.600;23.028;2023-06-04T05:45:44;93948.50;;;17.69;100.00
11345;BME280;5727;42.600;23.028;2023-06-04T05:48:13;93945.53;;;17.78;100.00
11345;BME280;5727;42.600;23.028;2023-06-04T05:50:40;93948.25;;;17.85;100.00
11345;BME280;5727;42.600;23.028;2023-06-04T05:53:08;93951.72;;;17.92;100.00
11345;BME280;5727;42.600;23.028;2023-06-04T05:55:35;93957.53;;;18.05;100.00
11345;BME280;5727;42.600;23.028;2023-06-04T05:58:01;93965.53;;;18.12;100.00
11345;BME280;5727;42.600;23.028;2023-06-04T06:00:28;93964.53;;;18.27;100.00
11345;BME280;5727;42.600;23.028;2023-06-04T06:02:55;93965.00;;;18.36;100.00
11345;BME280;5727;42.600;23.028;2023-06-04T06:05:23;93963.56;;;18.42;100.00
11345;BME280;5727;42.600;23.028;2023-06-04T06:07:50;93977.28;;;18.55;100.00
11345;BME280;5727;42.600;23.028;2023-06-04T06:10:17;93978.13;;;18.66;100.00
11345;BME280;5727;42.600;23.028;2023-06-04T06:12:44;93969.84;;;18.71;100.00
11345;BME280;5727;42.600;23.028;2023-06-04T06:15:11;93976.72;;;18.82;100.00
11345;BME280;5727;42.600;23.028;2023-06-04T06:17:38;93978.25;;;18.87;100.00
11345;BME280;5727;42.600;23.028;2023-06-04T06:20:05;93982.09;;;18.93;100.00
11345;BME280;5727;42.600;23.028;2023-06-04T06:22:34;93989.34;;;18.96;100.00
11345;BME280;5727;42.600;23.028;2023-06-04T06:25:02;93992.72;;;18.93;100.00
11345;BME280;5727;42.600;23.028;2023-06-04T06:27:30;93982.06;;;18.86;100.00
11345;BME280;5727;42.600;23.028;2023-06-04T06:29:57;93987.41;;;18.96;100.00
11345;BME280;5727;42.600;23.028;2023-06-04T06:32:24;93992.81;;;19.07;100.00
11345;BME280;5727;42.600;23.028;2023-06-04T06:34:52;93998.94;;;19.18;100.00
11345;BME280;5727;42.600;23.028;2023-06-04T06:37:19;93990.25;;;19.28;100.00
11345;BME280;5727;42.600;23.028;2023-06-04T06:39:47;93998.94;;;19.18;100.00
11345;BME280;5727;42.600;23.028;2023-06-04T06:42:14;93999.28;;;19.13;100.00
11345;BME280;5727;42.600;23.028;2023-06-04T06:44:42;94002.66;;;19.03;100.00
11345;BME280;5727;42.600;23.028;2023-06-04T06:47:09;94003.44;;;19.07;100.00
11345;BME280;5727;42.600;23.028;2023-06-04T06:49:38;94000.31;;;18.94;100.00
11345;BME280;5727;42.600;23.028;2023-06-04T06:52:05;93998.13;;;19.07;100.00
11345;BME280;5727;42.600;23.028;2023-06-04T06:54:32;94003.47;;;19.21;100.00
11345;BME280;5727;42.600;23.028;2023-06-04T06:57:00;94007.81;;;19.40;100.00
11345;BME280;5727;42.600;23.028;2023-06-04T06:59:28;94009.00;;;19.53;100.00
11345;BME280;5727;42.600;23.028;2023-06-04T07:01:54;94019.31;;;19.68;100.00
11345;BME280;5727;42.600;23.028;2023-06-04T07:04:21;94019.38;;;19.89;100.00
11345;BME280;5727;42.600;23.028;2023-06-04T07:06:48;94019.81;;;20.13;100.00
11345;BME280;5727;42.600;23.028;2023-06-04T07:09:15;94017.16;;;20.16;100.00
11345;BME280;5727;42.600;23.028;2023-06-04T07:11:41;94019.09;;;20.30;100.00
11345;BME280;5727;42.600;23.028;2023-06-04T07:14:09;94036.19;;;20.29;100.00
11345;BME280;5727;42.600;23.028;2023-06-04T07:16:36;94032.78;;;20.39;100.00
11345;BME280;5727;42.600;23.028;2023-06-04T07:19:03;94039.25;;;20.41;100.00
11345;BME280;5727;42.600;23.028;2023-06-04T07:21:30;94042.69;;;20.42;100.00
11345;BME280;5727;42.600;23.028;2023-06-04T07:23:56;94028.63;;;20.55;100.00
11345;BME280;5727;42.600;23.028;2023-06-04T07:26:23;94032.06;;;20.73;100.00
11345;BME280;5727;42.600;23.028;2023-06-04T07:28:50;94046.13;;;20.77;100.00
11345;BME280;5727;42.600;23.028;2023-06-04T07:31:18;94047.25;;;20.45;100.00
11345;BME280;5727;42.600;23.028;2023-06-04T07:33:45;94043.47;;;20.60;100.00
11345;BME280;5727;42.600;23.028;2023-06-04T07:36:12;94046.13;;;20.81;100.00
11345;BME280;5727;42.600;23.028;2023-06-04T07:38:39;94046.88;;;20.95;100.00
11345;BME280;5727;42.600;23.028;2023-06-04T07:41:06;94042.31;;;20.47;100.00
11345;BME280;5727;42.600;23.028;2023-06-04T07:43:33;94047.25;;;20.45;100.00
11345;BME280;5727;42.600;23.028;2023-06-04T07:46:01;94043.06;;;20.51;100.00
11345;BME280;5727;42.600;23.028;2023-06-04T07:48:29;94047.53;;;20.04;100.00
11345;BME280;5727;42.600;23.028;2023-06-04T07:50:57;94043.78;;;20.20;100.00
11345;BME280;5727;42.600;23.028;2023-06-04T07:53:23;94043.81;;;20.44;100.00
11345;BME280;5727;42.600;23.028;2023-06-04T07:55:51;94044.22;;;20.43;100.00
11345;BME280;5727;42.600;23.028;2023-06-04T07:58:18;94053.63;;;20.12;100.00
11345;BME280;5727;42.600;23.028;2023-06-04T08:00:45;94050.28;;;20.47;100.00
11345;BME280;5727;42.600;23.028;2023-06-04T08:03:11;94050.31;;;20.89;100.00
11345;BME280;5727;42.600;23.028;2023-06-04T08:05:42;94056.41;;;21.11;100.00
11345;BME280;5727;42.600;23.028;2023-06-04T08:08:08;94057.53;;;21.27;100.00
11345;BME280;5727;42.600;23.028;2023-06-04T08:10:35;94051.81;;;21.29;100.00
11345;BME280;5727;42.600;23.028;2023-06-04T08:13:02;94057.50;;;21.31;100.00
11345;BME280;5727;42.600;23.028;2023-06-04T08:15:29;94053.25;;;21.61;100.00
11345;BME280;5727;42.600;23.028;2023-06-04T08:17:56;94064.97;;;21.89;100.00
11345;BME280;5727;42.600;23.028;2023-06-04T08:20:23;94066.16;;;21.88;100.00
11345;BME280;5727;42.600;23.028;2023-06-04T08:22:52;94062.69;;;21.98;100.00
11345;BME280;5727;42.600;23.028;2023-06-04T08:25:19;94064.50;;;22.08;100.00
11345;BME280;5727;42.600;23.028;2023-06-04T08:27:45;94058.34;;;22.21;100.00
11345;BME280;5727;42.600;23.028;2023-06-04T08:30:12;94057.47;;;22.42;100.00
11345;BME280;5727;42.600;23.028;2023-06-04T08:32:39;94062.72;;;22.56;100.00
11345;BME280;5727;42.600;23.028;2023-06-04T08:35:07;94062.59;;;22.77;100.00
11345;BME280;5727;42.600;23.028;2023-06-04T08:37:35;94062.63;;;22.73;100.00
11345;BME280;5727;42.600;23.028;2023-06-04T08:40:05;94061.59;;;22.57;100.00
11345;BME280;5727;42.600;23.028;2023-06-04T08:42:38;94061.22;;;22.48;100.00
11345;BME280;5727;42.600;23.028;2023-06-04T08:45:10;94067.44;;;22.38;100.00
11345;BME280;5727;42.600;23.028;2023-06-04T08:47:38;94055.91;;;22.44;100.00
11345;BME280;5727;42.600;23.028;2023-06-04T08:50:08;94061.16;;;22.65;100.00
11345;BME280;5727;42.600;23.028;2023-06-04T08:52:37;94063.34;;;22.78;100.00
11345;BME280;5727;42.600;23.028;2023-06-04T08:55:06;94058.03;;;22.78;100.00
11345;BME280;5727;42.600;23.028;2023-06-04T08:57:35;94069.72;;;22.94;100.00
11345;BME280;5727;42.600;23.028;2023-06-04T09:00:03;94063.84;;;23.10;100.00
11345;BME280;5727;42.600;23.028;2023-06-04T09:02:33;94058.22;;;23.01;100.00
11345;BME280;5727;42.600;23.028;2023-06-04T09:05:00;94068.06;;;22.59;100.00
11345;BME280;5727;42.600;23.028;2023-06-04T09:07:28;94062.34;;;22.57;100.00
11345;BME280;5727;42.600;23.028;2023-06-04T09:09:56;94068.03;;;22.66;100.00
11345;BME280;5727;42.600;23.028;2023-06-04T09:12:24;94065.00;;;22.61;100.00
11345;BME280;5727;42.600;23.028;2023-06-04T09:14:52;94065.13;;;22.36;100.00
11345;BME280;5727;42.600;23.028;2023-06-04T09:17:21;94065.25;;;22.12;100.00
11345;BME280;5727;42.600;23.028;2023-06-04T09:19:49;94063.16;;;22.44;100.00
11345;BME280;5727;42.600;23.028;2023-06-04T09:22:16;94072.50;;;22.77;100.00
11345;BME280;5727;42.600;23.028;2023-06-04T09:24:44;94060.22;;;22.86;100.00
11345;BME280;5727;42.600;23.028;2023-06-04T09:27:13;94064.59;;;23.14;100.00
11345;BME280;5727;42.600;23.028;2023-06-04T09:29:48;94067.50;;;23.33;100.00
11345;BME280;5727;42.600;23.028;2023-06-04T09:32:20;94068.97;;;22.90;100.00
11345;BME280;5727;42.600;23.028;2023-06-04T09:34:47;94069.84;;;22.80;100.00
11345;BME280;5727;42.600;23.028;2023-06-04T09:37:14;94066.75;;;22.82;100.00
11345;BME280;5727;42.600;23.028;2023-06-04T09:39:41;94065.03;;;22.50;100.00
11345;BME280;5727;42.600;23.028;2023-06-04T09:42:08;94064.16;;;22.02;100.00
11345;BME280;5727;42.600;23.028;2023-06-04T09:44:43;94061.09;;;22.04;100.00
11345;BME280;5727;42.600;23.028;2023-06-04T09:47:11;94068.31;;;22.14;100.00
11345;BME280;5727;42.600;23.028;2023-06-04T09:49:40;94067.63;;;21.92;100.00
11345;BME280;5727;42.600;23.028;2023-06-04T09:52:07;94062.09;;;22.34;100.00
11345;BME280;5727;42.600;23.028;2023-06-04T09:54:35;94063.84;;;21.93;100.00
11345;BME280;5727;42.600;23.028;2023-06-04T09:57:04;94060.03;;;21.91;100.00
11345;BME280;5727;42.600;23.028;2023-06-04T09:59:34;94060.66;;;22.16;100.00
11345;BME280;5727;42.600;23.028;2023-06-04T10:02:09;94057.53;;;22.31;100.00
11345;BME280;5727;42.600;23.028;2023-06-04T10:04:39;94059.13;;;22.18;100.00
11345;BME280;5727;42.600;23.028;2023-06-04T10:07:09;94059.28;;;21.79;100.00
11345;BME280;5727;42.600;23.028;2023-06-04T10:09:38;94058.44;;;22.04;100.00
11345;BME280;5727;42.600;23.028;2023-06-04T10:12:11;94057.38;;;22.56;100.00
11345;BME280;5727;42.600;23.028;2023-06-04T10:14:41;94056.28;;;23.05;100.00
11345;BME280;5727;42.600;23.028;2023-06-04T10:17:15;94061.38;;;23.29;100.00
11345;BME280;5727;42.600;23.028;2023-06-04T10:19:43;94054.03;;;23.78;100.00
11345;BME280;5727;42.600;23.028;2023-06-04T10:22:11;94058.34;;;24.02;98.89
11345;BME280;5727;42.600;23.028;2023-06-04T10:24:38;94053.06;;;23.95;96.54
11345;BME280;5727;42.600;23.028;2023-06-04T10:27:06;94056.88;;;23.94;95.99
11345;BME280;5727;42.600;23.028;2023-06-04T10:29:36;94050.84;;;23.86;95.35
11345;BME280;5727;42.600;23.028;2023-06-04T10:32:03;94041.78;;;23.77;94.46
11345;BME280;5727;42.600;23.028;2023-06-04T10:34:31;94045.56;;;23.49;96.78
11345;BME280;5727;42.600;23.028;2023-06-04T10:36:59;94036.38;;;23.50;98.06
11345;BME280;5727;42.600;23.028;2023-06-04T10:39:26;94039.91;;;23.40;99.38
11345;BME280;5727;42.600;23.028;2023-06-04T10:42:00;94046.97;;;23.60;96.08
11345;BME280;5727;42.600;23.028;2023-06-04T10:44:26;94045.25;;;23.40;96.56
11345;BME280;5727;42.600;23.028;2023-06-04T10:46:53;94049.06;;;23.42;96.66
11345;BME280;5727;42.600;23.028;2023-06-04T10:49:26;94047.69;;;23.24;98.53
11345;BME280;5727;42.600;23.028;2023-06-04T10:51:55;94037.22;;;22.99;100.00
11345;BME280;5727;42.600;23.028;2023-06-04T10:54:23;94034.41;;;23.13;100.00
11345;BME280;5727;42.600;23.028;2023-06-04T10:56:51;94038.09;;;23.33;99.65
11345;BME280;5727;42.600;23.028;2023-06-04T10:59:18;94038.34;;;23.42;98.81
11345;BME280;5727;42.600;23.028;2023-06-04T11:01:45;94033.34;;;23.04;100.00
11345;BME280;5727;42.600;23.028;2023-06-04T11:04:19;94029.34;;;22.85;100.00
11345;BME280;5727;42.600;23.028;2023-06-04T11:06:46;94027.34;;;22.93;100.00
11345;BME280;5727;42.600;23.028;2023-06-04T11:09:14;94029.31;;;23.29;100.00
11345;BME280;5727;42.600;23.028;2023-06-04T11:11:43;94028.28;;;23.57;96.52
11345;BME280;5727;42.600;23.028;2023-06-04T11:14:10;94024.94;;;23.46;95.61
11345;BME280;5727;42.600;23.028;2023-06-04T11:16:38;94034.88;;;23.05;96.25
11345;BME280;5727;42.600;23.028;2023-06-04T11:19:04;94026.22;;;22.90;96.79
11345;BME280;5727;42.600;23.028;2023-06-04T11:21:34;94026.56;;;22.96;98.46
11345;BME280;5727;42.600;23.028;2023-06-04T11:24:03;94024.41;;;23.21;100.00
11345;BME280;5727;42.600;23.028;2023-06-04T11:26:32;94023.16;;;23.36;97.48
11345;BME280;5727;42.600;23.028;2023-06-04T11:28:59;94024.50;;;23.85;94.88
11345;BME280;5727;42.600;23.028;2023-06-04T11:31:26;94021.03;;;24.18;92.62
11345;BME280;5727;42.600;23.028;2023-06-04T11:33:53;94004.81;;;25.87;85.78
11345;BME280;5727;42.600;23.028;2023-06-04T11:36:23;94007.31;;;27.30;77.89
11345;BME280;5727;42.600;23.028;2023-06-04T11:38:55;93998.72;;;29.05;69.43
11345;BME280;5727;42.600;23.028;2023-06-04T11:41:23;93990.84;;;30.71;56.68
11345;BME280;5727;42.600;23.028;2023-06-04T11:43:51;93995.34;;;31.59;56.05
11345;BME280;5727;42.600;23.028;2023-06-04T11:46:19;93992.91;;;31.25;52.98
11345;BME280;5727;42.600;23.028;2023-06-04T11:48:46;93992.31;;;30.63;55.30
11345;BME280;5727;42.600;23.028;2023-06-04T11:51:12;93995.16;;;29.21;60.44
11345;BME280;5727;42.600;23.028;2023-06-04T11:53:40;93994.25;;;28.77;65.51
11345;BME280;5727;42.600;23.028;2023-06-04T11:56:07;93992.19;;;28.43;64.39
11345;BME280;5727;42.600;23.028;2023-06-04T11:58:34;93986.88;;;27.61;68.57
11345;BME280;5727;42.600;23.028;2023-06-04T12:01:02;93995.41;;;26.66;72.51
11345;BME280;5727;42.600;23.028;2023-06-04T12:03:36;93983.69;;;25.69;74.42
11345;BME280;5727;42.600;23.028;2023-06-04T12:06:12;93994.72;;;25.12;77.50
11345;BME280;5727;42.600;23.028;2023-06-04T12:08:45;93999.88;;;24.27;83.13
11345;BME280;5727;42.600;23.028;2023-06-04T12:11:25;93998.88;;;23.87;85.90
11345;BME280;5727;42.600;23.028;2023-06-04T12:13:52;93991.97;;;23.19;90.11
11345;BME280;5727;42.600;23.028;2023-06-04T12:16:20;94005.28;;;22.85;93.90
11345;BME280;5727;42.600;23.028;2023-06-04T12:18:47;93999.50;;;22.39;97.10
11345;BME280;5727;42.600;23.028;2023-06-04T12:21:21;94003.34;;;22.34;100.00
11345;BME280;5727;42.600;23.028;2023-06-04T12:23:53;94010.47;;;22.55;100.00
11345;BME280;5727;42.600;23.028;2023-06-04T12:26:21;94000.16;;;22.60;100.00
11345;BME280;5727;42.600;23.028;2023-06-04T12:29:07;94003.53;;;22.68;100.00
11345;BME280;5727;42.600;23.028;2023-06-04T12:31:37;93999.97;;;22.82;100.00
11345;BME280;5727;42.600;23.028;2023-06-04T12:34:04;93993.16;;;22.73;97.54
11345;BME280;5727;42.600;23.028;2023-06-04T12:36:31;93996.06;;;22.42;99.94
11345;BME280;5727;42.600;23.028;2023-06-04T12:39:00;93991.06;;;22.44;100.00
11345;BME280;5727;42.600;23.028;2023-06-04T12:41:27;93989.50;;;22.57;100.00
11345;BME280;5727;42.600;23.028;2023-06-04T12:43:55;93989.50;;;22.57;100.00
11345;BME280;5727;42.600;23.028;2023-06-04T12:46:22;93989.81;;;22.66;99.26
11345;BME280;5727;42.600;23.028;2023-06-04T12:48:50;93996.03;;;22.49;99.51
11345;BME280;5727;42.600;23.028;2023-06-04T12:51:17;93990.97;;;22.61;99.84
11345;BME280;5727;42.600;23.028;2023-06-04T12:53:44;93989.09;;;22.55;98.70
11345;BME280;5727;42.600;23.028;2023-06-04T12:56:11;93987.28;;;22.45;98.98